sensor_id;sensor_type;location;lat;lon;timestamp;P1;durP1;ratioP1;P2;durP2;ratioP2
50393;SDS011;36308;46.312;25.288;2023-02-01T00:01:50;13.00;;;6.90;;
50393;SDS011;36308;46.312;25.288;2023-02-01T00:04:16;13.10;;;6.63;;
50393;SDS011;36308;46.312;25.288;2023-02-01T00:06:42;13.85;;;6.57;;
50393;SDS011;36308;46.312;25.288;2023-02-01T00:09:07;12.40;;;5.72;;
50393;SDS011;36308;46.312;25.288;2023-02-01T00:11:33;13.13;;;6.22;;
50393;SDS011;36308;46.312;25.288;2023-02-01T00:13:59;13.10;;;6.55;;
50393;SDS011;36308;46.312;25.288;2023-02-01T00:16:26;13.32;;;6.45;;
50393;SDS011;36308;46.312;25.288;2023-02-01T00:18:57;10.35;;;5.95;;
50393;SDS011;36308;46.312;25.288;2023-02-01T00:21:27;14.43;;;8.02;;
50393;SDS011;36308;46.312;25.288;2023-02-01T00:23:53;14.00;;;8.20;;
50393;SDS011;36308;46.312;25.288;2023-02-01T00:26:20;18.95;;;8.38;;
50393;SDS011;36308;46.312;25.288;2023-02-01T00:28:51;14.60;;;7.10;;
50393;SDS011;36308;46.312;25.288;2023-02-01T00:31:16;17.45;;;8.15;;
50393;SDS011;36308;46.312;25.288;2023-02-01T00:33:42;19.83;;;9.10;;
50393;SDS011;36308;46.312;25.288;2023-02-01T00:36:07;23.88;;;11.65;;
50393;SDS011;36308;46.312;25.288;2023-02-01T00:38:36;26.95;;;12.85;;
50393;SDS011;36308;46.312;25.288;2023-02-01T00:41:03;23.67;;;11.32;;
50393;SDS011;36308;46.312;25.288;2023-02-01T00:43:31;27.60;;;12.13;;
50393;SDS011;36308;46.312;25.288;2023-02-01T00:45:57;27.50;;;12.98;;
50393;SDS011;36308;46.312;25.288;2023-02-01T00:48:23;31.90;;;15.70;;
50393;SDS011;36308;46.312;25.288;2023-02-01T00:50:49;30.05;;;14.45;;
50393;SDS011;36308;46.312;25.288;2023-02-01T00:53:14;31.40;;;15.48;;
50393;SDS011;36308;46.312;25.288;2023-02-01T00:55:40;30.00;;;15.57;;
50393;SDS011;36308;46.312;25.288;2023-02-01T00:58:05;25.75;;;14.57;;
50393;SDS011;36308;46.312;25.288;2023-02-01T01:00:34;30.50;;;15.82;;
50393;SDS011;36308;46.312;25.288;2023-02-01T01:03:00;32.53;;;16.13;;
50393;SDS011;36308;46.312;25.288;2023-02-01T01:05:25;17.95;;;9.90;;
50393;SDS011;36308;46.312;25.288;2023-02-01T01:07:52;19.45;;;9.07;;
50393;SDS011;36308;46.312;25.288;2023-02-01T01:10:18;18.50;;;9.85;;
50393;SDS011;36308;46.312;25.288;2023-02-01T01:12:44;19.42;;;10.35;;
50393;SDS011;36308;46.312;25.288;2023-02-01T01:15:09;20.92;;;10.90;;
50393;SDS011;36308;46.312;25.288;2023-02-01T01:17:35;24.30;;;13.50;;
50393;SDS011;36308;46.312;25.288;2023-02-01T01:20:01;33.22;;;18.75;;
50393;SDS011;36308;46.312;25.288;2023-02-01T01:22:27;33.13;;;17.50;;
50393;SDS011;36308;46.312;25.288;2023-02-01T01:24:53;21.38;;;11.60;;
50393;SDS011;36308;46.312;25.288;2023-02-01T01:27:18;21.85;;;11.13;;
50393;SDS011;36308;46.312;25.288;2023-02-01T01:29:48;21.83;;;12.40;;
50393;SDS011;36308;46.312;25.288;2023-02-01T01:32:14;26.73;;;13.43;;
50393;SDS011;36308;46.312;25.288;2023-02-01T01:34:40;24.90;;;13.05;;
50393;SDS011;36308;46.312;25.288;2023-02-01T01:37:05;23.90;;;12.50;;
50393;SDS011;36308;46.312;25.288;2023-02-01T01:39:31;26.70;;;12.57;;
50393;SDS011;36308;46.312;25.288;2023-02-01T01:41:56;21.52;;;11.63;;
50393;SDS011;36308;46.312;25.288;2023-02-01T01:47:30;22.63;;;12.65;;
50393;SDS011;36308;46.312;25.288;2023-02-01T01:50:02;26.02;;;14.20;;
50393;SDS011;36308;46.312;25.288;2023-02-01T01:52:31;23.88;;;12.85;;
50393;SDS011;36308;46.312;25.288;2023-02-01T01:54:58;26.88;;;13.60;;
50393;SDS011;36308;46.312;25.288;2023-02-01T01:57:26;28.48;;;13.38;;
50393;SDS011;36308;46.312;25.288;2023-02-01T02:00:15;23.98;;;13.15;;
50393;SDS011;36308;46.312;25.288;2023-02-01T02:02:43;24.55;;;12.65;;
50393;SDS011;36308;46.312;25.288;2023-02-01T02:05:11;24.25;;;13.20;;
50393;SDS011;36308;46.312;25.288;2023-02-01T02:07:39;22.95;;;11.85;;
50393;SDS011;36308;46.312;25.288;2023-02-01T02:10:09;21.70;;;11.70;;
50393;SDS011;36308;46.312;25.288;2023-02-01T02:12:39;21.77;;;11.77;;
50393;SDS011;36308;46.312;25.288;2023-02-01T02:15:10;23.55;;;12.90;;
50393;SDS011;36308;46.312;25.288;2023-02-01T02:47:47;27.55;;;14.15;;
50393;SDS011;36308;46.312;25.288;2023-02-01T02:50:35;34.40;;;16.85;;
50393;SDS011;36308;46.312;25.288;2023-02-01T02:53:42;49.58;;;22.58;;
50393;SDS011;36308;46.312;25.288;2023-02-01T02:56:35;39.95;;;18.40;;
50393;SDS011;36308;46.312;25.288;2023-02-01T02:59:21;34.22;;;16.83;;
50393;SDS011;36308;46.312;25.288;2023-02-01T03:02:08;29.20;;;14.88;;
50393;SDS011;36308;46.312;25.288;2023-02-01T03:04:54;30.52;;;16.15;;
50393;SDS011;36308;46.312;25.288;2023-02-01T03:10:11;30.95;;;14.73;;
50393;SDS011;36308;46.312;25.288;2023-02-01T03:12:38;30.33;;;15.98;;
50393;SDS011;36308;46.312;25.288;2023-02-01T03:15:39;27.60;;;15.43;;
50393;SDS011;36308;46.312;25.288;2023-02-01T03:18:55;29.35;;;15.13;;
50393;SDS011;36308;46.312;25.288;2023-02-01T03:26:50;29.85;;;15.10;;
50393;SDS011;36308;46.312;25.288;2023-02-01T03:29:30;34.17;;;16.77;;
50393;SDS011;36308;46.312;25.288;2023-02-01T03:32:03;28.92;;;16.67;;
50393;SDS011;36308;46.312;25.288;2023-02-01T03:34:28;28.52;;;15.40;;
50393;SDS011;36308;46.312;25.288;2023-02-01T03:36:57;29.58;;;15.88;;
50393;SDS011;36308;46.312;25.288;2023-02-01T03:42:01;26.50;;;15.02;;
50393;SDS011;36308;46.312;25.288;2023-02-01T03:44:45;38.95;;;21.27;;
50393;SDS011;36308;46.312;25.288;2023-02-01T03:47:17;24.88;;;14.88;;
50393;SDS011;36308;46.312;25.288;2023-02-01T03:49:47;26.25;;;13.63;;
50393;SDS011;36308;46.312;25.288;2023-02-01T03:52:28;26.90;;;14.48;;
50393;SDS011;36308;46.312;25.288;2023-02-01T03:54:59;26.75;;;14.52;;
50393;SDS011;36308;46.312;25.288;2023-02-01T03:57:27;28.45;;;14.65;;
50393;SDS011;36308;46.312;25.288;2023-02-01T04:00:07;30.58;;;16.83;;
50393;SDS011;36308;46.312;25.288;2023-02-01T04:02:39;32.88;;;16.92;;
50393;SDS011;36308;46.312;25.288;2023-02-01T04:05:05;31.38;;;17.38;;
50393;SDS011;36308;46.312;25.288;2023-02-01T04:07:30;30.38;;;16.48;;
50393;SDS011;36308;46.312;25.288;2023-02-01T04:09:57;31.13;;;17.73;;
50393;SDS011;36308;46.312;25.288;2023-02-01T04:12:22;32.28;;;17.75;;
50393;SDS011;36308;46.312;25.288;2023-02-01T04:14:48;48.35;;;27.25;;
50393;SDS011;36308;46.312;25.288;2023-02-01T04:17:13;43.22;;;24.50;;
50393;SDS011;36308;46.312;25.288;2023-02-01T04:19:38;36.65;;;21.40;;
50393;SDS011;36308;46.312;25.288;2023-02-01T04:22:04;36.65;;;21.02;;
50393;SDS011;36308;46.312;25.288;2023-02-01T04:24:29;41.35;;;25.00;;
50393;SDS011;36308;46.312;25.288;2023-02-01T04:26:55;40.65;;;23.20;;
50393;SDS011;36308;46.312;25.288;2023-02-01T04:29:20;75.63;;;44.92;;
50393;SDS011;36308;46.312;25.288;2023-02-01T04:31:46;70.70;;;39.10;;
50393;SDS011;36308;46.312;25.288;2023-02-01T04:34:11;65.65;;;39.80;;
50393;SDS011;36308;46.312;25.288;2023-02-01T04:36:37;52.10;;;31.27;;
50393;SDS011;36308;46.312;25.288;2023-02-01T04:39:02;75.47;;;41.58;;
50393;SDS011;36308;46.312;25.288;2023-02-01T04:41:28;78.72;;;41.72;;
50393;SDS011;36308;46.312;25.288;2023-02-01T04:43:55;66.60;;;35.58;;
50393;SDS011;36308;46.312;25.288;2023-02-01T04:46:20;75.20;;;37.92;;
50393;SDS011;36308;46.312;25.288;2023-02-01T04:48:46;71.55;;;39.90;;
50393;SDS011;36308;46.312;25.288;2023-02-01T04:51:11;64.28;;;34.42;;
50393;SDS011;36308;46.312;25.288;2023-02-01T04:53:37;45.22;;;26.70;;
50393;SDS011;36308;46.312;25.288;2023-02-01T04:56:03;43.63;;;23.67;;
50393;SDS011;36308;46.312;25.288;2023-02-01T04:58:29;28.38;;;15.88;;
50393;SDS011;36308;46.312;25.288;2023-02-01T05:00:54;21.92;;;13.23;;
50393;SDS011;36308;46.312;25.288;2023-02-01T05:03:20;56.65;;;29.15;;
50393;SDS011;36308;46.312;25.288;2023-02-01T05:05:48;79.93;;;42.03;;
50393;SDS011;36308;46.312;25.288;2023-02-01T05:08:14;37.72;;;20.95;;
50393;SDS011;36308;46.312;25.288;2023-02-01T05:10:40;69.68;;;36.75;;
50393;SDS011;36308;46.312;25.288;2023-02-01T05:13:05;63.78;;;34.17;;
50393;SDS011;36308;46.312;25.288;2023-02-01T05:15:50;40.35;;;24.83;;
50393;SDS011;36308;46.312;25.288;2023-02-01T05:18:16;48.38;;;25.83;;
50393;SDS011;36308;46.312;25.288;2023-02-01T05:20:41;45.78;;;23.40;;
50393;SDS011;36308;46.312;25.288;2023-02-01T05:23:07;23.45;;;12.05;;
50393;SDS011;36308;46.312;25.288;2023-02-01T05:25:33;19.48;;;10.38;;
50393;SDS011;36308;46.312;25.288;2023-02-01T05:27:58;34.25;;;16.35;;
50393;SDS011;36308;46.312;25.288;2023-02-01T05:30:24;26.08;;;13.95;;
50393;SDS011;36308;46.312;25.288;2023-02-01T05:32:52;17.38;;;10.48;;
50393;SDS011;36308;46.312;25.288;2023-02-01T05:35:18;18.95;;;10.82;;
50393;SDS011;36308;46.312;25.288;2023-02-01T05:37:44;16.45;;;9.73;;
50393;SDS011;36308;46.312;25.288;2023-02-01T05:40:10;12.60;;;7.63;;
50393;SDS011;36308;46.312;25.288;2023-02-01T05:42:36;20.75;;;10.25;;
50393;SDS011;36308;46.312;25.288;2023-02-01T05:45:02;36.15;;;18.00;;
50393;SDS011;36308;46.312;25.288;2023-02-01T05:47:30;21.13;;;9.98;;
50393;SDS011;36308;46.312;25.288;2023-02-01T05:49:56;22.58;;;11.30;;
50393;SDS011;36308;46.312;25.288;2023-02-01T05:52:21;26.80;;;12.77;;
50393;SDS011;36308;46.312;25.288;2023-02-01T05:54:47;22.42;;;13.75;;
50393;SDS011;36308;46.312;25.288;2023-02-01T05:57:13;21.80;;;14.02;;
50393;SDS011;36308;46.312;25.288;2023-02-01T05:59:39;28.40;;;19.38;;
50393;SDS011;36308;46.312;25.288;2023-02-01T06:02:10;36.88;;;18.00;;
50393;SDS011;36308;46.312;25.288;2023-02-01T06:04:36;41.75;;;20.42;;
50393;SDS011;36308;46.312;25.288;2023-02-01T06:07:02;23.08;;;11.50;;
50393;SDS011;36308;46.312;25.288;2023-02-01T06:09:28;33.30;;;18.90;;
50393;SDS011;36308;46.312;25.288;2023-02-01T06:11:53;18.83;;;9.95;;
50393;SDS011;36308;46.312;25.288;2023-02-01T06:14:19;34.05;;;16.60;;
50393;SDS011;36308;46.312;25.288;2023-02-01T06:16:45;20.50;;;11.45;;
50393;SDS011;36308;46.312;25.288;2023-02-01T06:19:11;51.70;;;22.13;;
50393;SDS011;36308;46.312;25.288;2023-02-01T06:21:38;38.00;;;15.77;;
50393;SDS011;36308;46.312;25.288;2023-02-01T06:24:03;45.38;;;17.13;;
50393;SDS011;36308;46.312;25.288;2023-02-01T06:26:29;47.05;;;19.40;;
50393;SDS011;36308;46.312;25.288;2023-02-01T06:28:55;72.43;;;24.45;;
50393;SDS011;36308;46.312;25.288;2023-02-01T06:31:21;27.73;;;11.25;;
50393;SDS011;36308;46.312;25.288;2023-02-01T06:33:48;47.20;;;15.43;;
50393;SDS011;36308;46.312;25.288;2023-02-01T06:36:13;15.75;;;7.05;;
50393;SDS011;36308;46.312;25.288;2023-02-01T06:38:40;45.00;;;15.98;;
50393;SDS011;36308;46.312;25.288;2023-02-01T06:41:06;251.50;;;86.38;;
50393;SDS011;36308;46.312;25.288;2023-02-01T06:43:32;36.58;;;15.02;;
50393;SDS011;36308;46.312;25.288;2023-02-01T06:46:01;23.70;;;10.65;;
50393;SDS011;36308;46.312;25.288;2023-02-01T06:48:29;43.08;;;14.90;;
50393;SDS011;36308;46.312;25.288;2023-02-01T06:50:55;45.67;;;18.13;;
50393;SDS011;36308;46.312;25.288;2023-02-01T06:53:21;42.00;;;17.30;;
50393;SDS011;36308;46.312;25.288;2023-02-01T06:56:08;30.00;;;12.18;;
50393;SDS011;36308;46.312;25.288;2023-02-01T06:58:34;33.20;;;14.88;;
50393;SDS011;36308;46.312;25.288;2023-02-01T07:01:06;57.30;;;24.65;;
50393;SDS011;36308;46.312;25.288;2023-02-01T07:03:33;17.27;;;9.23;;
50393;SDS011;36308;46.312;25.288;2023-02-01T07:05:59;29.35;;;13.80;;
50393;SDS011;36308;46.312;25.288;2023-02-01T07:08:28;18.38;;;7.60;;
50393;SDS011;36308;46.312;25.288;2023-02-01T07:10:55;19.40;;;9.40;;
50393;SDS011;36308;46.312;25.288;2023-02-01T07:13:21;19.42;;;9.45;;
50393;SDS011;36308;46.312;25.288;2023-02-01T07:15:46;25.27;;;11.73;;
50393;SDS011;36308;46.312;25.288;2023-02-01T07:18:13;19.50;;;8.13;;
50393;SDS011;36308;46.312;25.288;2023-02-01T07:20:39;35.95;;;13.52;;
50393;SDS011;36308;46.312;25.288;2023-02-01T07:23:05;24.25;;;12.05;;
50393;SDS011;36308;46.312;25.288;2023-02-01T07:25:30;70.57;;;23.92;;
50393;SDS011;36308;46.312;25.288;2023-02-01T07:27:56;30.33;;;13.70;;
50393;SDS011;36308;46.312;25.288;2023-02-01T07:30:22;14.85;;;8.02;;
50393;SDS011;36308;46.312;25.288;2023-02-01T07:32:48;26.05;;;10.98;;
50393;SDS011;36308;46.312;25.288;2023-02-01T07:35:14;81.78;;;29.08;;
50393;SDS011;36308;46.312;25.288;2023-02-01T07:37:39;79.80;;;37.15;;
50393;SDS011;36308;46.312;25.288;2023-02-01T07:40:05;30.73;;;14.48;;
50393;SDS011;36308;46.312;25.288;2023-02-01T07:42:32;20.08;;;10.00;;
50393;SDS011;36308;46.312;25.288;2023-02-01T07:44:58;24.70;;;12.30;;
50393;SDS011;36308;46.312;25.288;2023-02-01T07:47:24;15.57;;;7.50;;
50393;SDS011;36308;46.312;25.288;2023-02-01T07:49:49;52.13;;;23.27;;
50393;SDS011;36308;46.312;25.288;2023-02-01T07:52:15;19.88;;;9.75;;
50393;SDS011;36308;46.312;25.288;2023-02-01T07:54:43;17.58;;;9.30;;
50393;SDS011;36308;46.312;25.288;2023-02-01T07:57:08;24.73;;;12.52;;
50393;SDS011;36308;46.312;25.288;2023-02-01T07:59:36;20.20;;;9.35;;
50393;SDS011;36308;46.312;25.288;2023-02-01T08:02:21;41.03;;;23.75;;
50393;SDS011;36308;46.312;25.288;2023-02-01T08:04:47;45.97;;;27.65;;
50393;SDS011;36308;46.312;25.288;2023-02-01T08:07:12;40.50;;;25.52;;
50393;SDS011;36308;46.312;25.288;2023-02-01T08:09:56;45.38;;;27.67;;
50393;SDS011;36308;46.312;25.288;2023-02-01T08:12:22;41.70;;;27.10;;
50393;SDS011;36308;46.312;25.288;2023-02-01T08:14:49;57.80;;;33.58;;
50393;SDS011;36308;46.312;25.288;2023-02-01T08:17:26;97.30;;;61.63;;
50393;SDS011;36308;46.312;25.288;2023-02-01T08:19:53;122.40;;;78.28;;
50393;SDS011;36308;46.312;25.288;2023-02-01T08:22:18;115.55;;;65.50;;
50393;SDS011;36308;46.312;25.288;2023-02-01T08:24:44;52.55;;;28.85;;
50393;SDS011;36308;46.312;25.288;2023-02-01T08:27:13;81.45;;;40.17;;
50393;SDS011;36308;46.312;25.288;2023-02-01T08:29:38;75.25;;;33.95;;
50393;SDS011;36308;46.312;25.288;2023-02-01T08:32:04;64.82;;;33.05;;
50393;SDS011;36308;46.312;25.288;2023-02-01T08:34:30;62.72;;;36.58;;
50393;SDS011;36308;46.312;25.288;2023-02-01T08:36:55;37.88;;;21.65;;
50393;SDS011;36308;46.312;25.288;2023-02-01T08:39:25;85.60;;;42.10;;
50393;SDS011;36308;46.312;25.288;2023-02-01T08:42:09;32.03;;;18.05;;
50393;SDS011;36308;46.312;25.288;2023-02-01T08:44:54;48.20;;;26.67;;
50393;SDS011;36308;46.312;25.288;2023-02-01T08:47:19;45.75;;;26.70;;
50393;SDS011;36308;46.312;25.288;2023-02-01T08:49:45;62.45;;;32.63;;
50393;SDS011;36308;46.312;25.288;2023-02-01T08:52:11;36.17;;;21.67;;
50393;SDS011;36308;46.312;25.288;2023-02-01T08:54:37;42.67;;;25.83;;
50393;SDS011;36308;46.312;25.288;2023-02-01T08:57:04;45.60;;;30.10;;
50393;SDS011;36308;46.312;25.288;2023-02-01T08:59:30;69.25;;;40.70;;
50393;SDS011;36308;46.312;25.288;2023-02-01T09:01:55;81.80;;;46.67;;
50393;SDS011;36308;46.312;25.288;2023-02-01T09:04:21;86.55;;;42.25;;
50393;SDS011;36308;46.312;25.288;2023-02-01T09:06:46;101.68;;;53.38;;
50393;SDS011;36308;46.312;25.288;2023-02-01T09:09:12;96.40;;;52.45;;
50393;SDS011;36308;46.312;25.288;2023-02-01T09:11:37;69.88;;;35.72;;
50393;SDS011;36308;46.312;25.288;2023-02-01T09:14:03;75.85;;;39.65;;
50393;SDS011;36308;46.312;25.288;2023-02-01T09:16:28;67.70;;;38.75;;
50393;SDS011;36308;46.312;25.288;2023-02-01T09:18:54;56.80;;;34.08;;
50393;SDS011;36308;46.312;25.288;2023-02-01T09:21:20;62.33;;;39.58;;
50393;SDS011;36308;46.312;25.288;2023-02-01T09:23:45;55.67;;;35.92;;
50393;SDS011;36308;46.312;25.288;2023-02-01T09:26:13;62.17;;;38.83;;
50393;SDS011;36308;46.312;25.288;2023-02-01T09:28:39;81.90;;;47.53;;
50393;SDS011;36308;46.312;25.288;2023-02-01T09:31:04;78.07;;;46.53;;
50393;SDS011;36308;46.312;25.288;2023-02-01T09:33:30;62.10;;;38.10;;
50393;SDS011;36308;46.312;25.288;2023-02-01T09:35:57;55.65;;;37.58;;
50393;SDS011;36308;46.312;25.288;2023-02-01T09:38:27;54.95;;;36.53;;
50393;SDS011;36308;46.312;25.288;2023-02-01T09:40:53;91.05;;;52.38;;
50393;SDS011;36308;46.312;25.288;2023-02-01T09:48:49;73.63;;;38.13;;
50393;SDS011;36308;46.312;25.288;2023-02-01T09:51:21;47.17;;;26.60;;
50393;SDS011;36308;46.312;25.288;2023-02-01T09:54:02;31.52;;;19.73;;
50393;SDS011;36308;46.312;25.288;2023-02-01T09:57:15;35.55;;;20.73;;
50393;SDS011;36308;46.312;25.288;2023-02-01T09:59:29;37.65;;;22.30;;
50393;SDS011;36308;46.312;25.288;2023-02-01T10:01:57;38.88;;;22.48;;
50393;SDS011;36308;46.312;25.288;2023-02-01T10:04:24;55.47;;;38.08;;
50393;SDS011;36308;46.312;25.288;2023-02-01T10:09:29;67.20;;;47.90;;
50393;SDS011;36308;46.312;25.288;2023-02-01T10:20:23;21.63;;;13.55;;
50393;SDS011;36308;46.312;25.288;2023-02-01T10:26:12;36.25;;;19.35;;
50393;SDS011;36308;46.312;25.288;2023-02-01T10:29:10;59.42;;;40.03;;
50393;SDS011;36308;46.312;25.288;2023-02-01T10:31:38;57.55;;;32.97;;
50393;SDS011;36308;46.312;25.288;2023-02-01T10:34:11;55.08;;;36.10;;
50393;SDS011;36308;46.312;25.288;2023-02-01T10:36:50;29.83;;;18.00;;
50393;SDS011;36308;46.312;25.288;2023-02-01T10:39:20;12.65;;;7.32;;
50393;SDS011;36308;46.312;25.288;2023-02-01T10:41:46;15.50;;;9.25;;
50393;SDS011;36308;46.312;25.288;2023-02-01T10:44:16;17.20;;;10.10;;
50393;SDS011;36308;46.312;25.288;2023-02-01T10:46:47;40.63;;;22.30;;
50393;SDS011;36308;46.312;25.288;2023-02-01T10:49:21;7.95;;;4.65;;
50393;SDS011;36308;46.312;25.288;2023-02-01T10:51:59;15.48;;;9.55;;
50393;SDS011;36308;46.312;25.288;2023-02-01T10:54:36;12.52;;;8.07;;
50393;SDS011;36308;46.312;25.288;2023-02-01T10:57:06;7.82;;;4.80;;
50393;SDS011;36308;46.312;25.288;2023-02-01T10:59:36;11.65;;;7.28;;
50393;SDS011;36308;46.312;25.288;2023-02-01T11:04:59;14.95;;;8.77;;
50393;SDS011;36308;46.312;25.288;2023-02-01T11:07:37;9.38;;;5.63;;
50393;SDS011;36308;46.312;25.288;2023-02-01T11:10:04;7.38;;;4.75;;
50393;SDS011;36308;46.312;25.288;2023-02-01T11:12:32;27.85;;;16.05;;
50393;SDS011;36308;46.312;25.288;2023-02-01T11:15:01;19.00;;;10.75;;
50393;SDS011;36308;46.312;25.288;2023-02-01T11:17:39;6.13;;;3.88;;
50393;SDS011;36308;46.312;25.288;2023-02-01T11:20:34;7.22;;;4.05;;
50393;SDS011;36308;46.312;25.288;2023-02-01T11:22:58;7.95;;;5.00;;
50393;SDS011;36308;46.312;25.288;2023-02-01T11:25:25;6.57;;;4.00;;
50393;SDS011;36308;46.312;25.288;2023-02-01T11:27:51;7.43;;;4.53;;
50393;SDS011;36308;46.312;25.288;2023-02-01T11:30:31;5.75;;;3.75;;
50393;SDS011;36308;46.312;25.288;2023-02-01T11:33:01;13.77;;;7.95;;
50393;SDS011;36308;46.312;25.288;2023-02-01T11:35:30;15.45;;;8.95;;
50393;SDS011;36308;46.312;25.288;2023-02-01T11:37:57;8.75;;;4.63;;
50393;SDS011;36308;46.312;25.288;2023-02-01T11:40:37;7.07;;;4.35;;
50393;SDS011;36308;46.312;25.288;2023-02-01T11:45:59;7.95;;;4.80;;
50393;SDS011;36308;46.312;25.288;2023-02-01T11:48:28;8.00;;;4.95;;
50393;SDS011;36308;46.312;25.288;2023-02-01T12:01:30;33.78;;;17.05;;
50393;SDS011;36308;46.312;25.288;2023-02-01T12:06:55;47.95;;;21.13;;
50393;SDS011;36308;46.312;25.288;2023-02-01T12:12:16;14.70;;;8.00;;
50393;SDS011;36308;46.312;25.288;2023-02-01T12:17:51;24.35;;;13.18;;
50393;SDS011;36308;46.312;25.288;2023-02-01T12:26:41;12.82;;;6.70;;
50393;SDS011;36308;46.312;25.288;2023-02-01T12:42:15;4.90;;;3.20;;
50393;SDS011;36308;46.312;25.288;2023-02-01T12:47:45;3.55;;;2.55;;
50393;SDS011;36308;46.312;25.288;2023-02-01T12:50:20;3.50;;;2.35;;
50393;SDS011;36308;46.312;25.288;2023-02-01T12:52:52;4.93;;;3.47;;
50393;SDS011;36308;46.312;25.288;2023-02-01T12:55:24;6.85;;;4.53;;
50393;SDS011;36308;46.312;25.288;2023-02-01T13:01:02;9.35;;;6.13;;
50393;SDS011;36308;46.312;25.288;2023-02-01T13:06:18;7.70;;;4.22;;
50393;SDS011;36308;46.312;25.288;2023-02-01T13:09:02;10.63;;;5.82;;
50393;SDS011;36308;46.312;25.288;2023-02-01T13:16:39;21.45;;;12.18;;
50393;SDS011;36308;46.312;25.288;2023-02-01T13:19:17;41.05;;;20.90;;
50393;SDS011;36308;46.312;25.288;2023-02-01T13:21:46;8.15;;;5.03;;
50393;SDS011;36308;46.312;25.288;2023-02-01T13:24:38;6.32;;;3.28;;
50393;SDS011;36308;46.312;25.288;2023-02-01T13:27:13;31.65;;;15.63;;
50393;SDS011;36308;46.312;25.288;2023-02-01T13:38:01;8.60;;;4.35;;
50393;SDS011;36308;46.312;25.288;2023-02-01T13:43:01;14.40;;;6.40;;
50393;SDS011;36308;46.312;25.288;2023-02-01T13:45:33;5.68;;;3.47;;
50393;SDS011;36308;46.312;25.288;2023-02-01T13:48:03;13.75;;;7.53;;
50393;SDS011;36308;46.312;25.288;2023-02-01T13:50:34;14.13;;;8.30;;
50393;SDS011;36308;46.312;25.288;2023-02-01T14:00:42;5.35;;;3.38;;
50393;SDS011;36308;46.312;25.288;2023-02-01T14:03:19;13.52;;;6.30;;
50393;SDS011;36308;46.312;25.288;2023-02-01T14:08:13;66.55;;;23.65;;
50393;SDS011;36308;46.312;25.288;2023-02-01T14:10:53;20.75;;;8.05;;
50393;SDS011;36308;46.312;25.288;2023-02-01T14:13:40;7.90;;;4.15;;
50393;SDS011;36308;46.312;25.288;2023-02-01T14:21:20;6.80;;;4.10;;
50393;SDS011;36308;46.312;25.288;2023-02-01T14:23:48;13.77;;;6.65;;
50393;SDS011;36308;46.312;25.288;2023-02-01T14:39:27;16.63;;;8.43;;
50393;SDS011;36308;46.312;25.288;2023-02-01T14:41:54;17.60;;;9.63;;
50393;SDS011;36308;46.312;25.288;2023-02-01T14:44:26;29.25;;;14.63;;
50393;SDS011;36308;46.312;25.288;2023-02-01T14:50:04;51.50;;;20.30;;
50393;SDS011;36308;46.312;25.288;2023-02-01T14:52:36;26.83;;;12.05;;
50393;SDS011;36308;46.312;25.288;2023-02-01T14:55:15;17.75;;;9.00;;
50393;SDS011;36308;46.312;25.288;2023-02-01T15:00:41;11.45;;;7.30;;
50393;SDS011;36308;46.312;25.288;2023-02-01T15:03:34;27.67;;;14.38;;
50393;SDS011;36308;46.312;25.288;2023-02-01T15:06:26;13.85;;;7.95;;
50393;SDS011;36308;46.312;25.288;2023-02-01T15:09:03;17.08;;;10.15;;
50393;SDS011;36308;46.312;25.288;2023-02-01T15:11:52;11.93;;;7.25;;
50393;SDS011;36308;46.312;25.288;2023-02-01T15:14:25;8.55;;;5.20;;
50393;SDS011;36308;46.312;25.288;2023-02-01T15:16:51;9.27;;;5.57;;
50393;SDS011;36308;46.312;25.288;2023-02-01T15:19:23;10.38;;;5.82;;
50393;SDS011;36308;46.312;25.288;2023-02-01T15:21:52;10.60;;;6.43;;
50393;SDS011;36308;46.312;25.288;2023-02-01T15:26:50;24.77;;;14.45;;
50393;SDS011;36308;46.312;25.288;2023-02-01T15:29:20;16.60;;;10.27;;
50393;SDS011;36308;46.312;25.288;2023-02-01T15:31:48;20.88;;;13.85;;
50393;SDS011;36308;46.312;25.288;2023-02-01T15:34:16;16.48;;;10.50;;
50393;SDS011;36308;46.312;25.288;2023-02-01T15:36:42;12.75;;;7.80;;
50393;SDS011;36308;46.312;25.288;2023-02-01T15:39:14;9.80;;;6.05;;
50393;SDS011;36308;46.312;25.288;2023-02-01T15:41:51;15.32;;;10.93;;
50393;SDS011;36308;46.312;25.288;2023-02-01T15:46:57;17.17;;;11.05;;
50393;SDS011;36308;46.312;25.288;2023-02-01T15:51:54;33.83;;;18.70;;
50393;SDS011;36308;46.312;25.288;2023-02-01T15:54:41;29.75;;;19.33;;
50393;SDS011;36308;46.312;25.288;2023-02-01T15:57:11;42.25;;;34.08;;
50393;SDS011;36308;46.312;25.288;2023-02-01T16:02:58;72.50;;;45.65;;
50393;SDS011;36308;46.312;25.288;2023-02-01T16:05:29;67.65;;;36.40;;
50393;SDS011;36308;46.312;25.288;2023-02-01T16:08:17;56.17;;;29.48;;
50393;SDS011;36308;46.312;25.288;2023-02-01T16:10:48;33.95;;;20.17;;
50393;SDS011;36308;46.312;25.288;2023-02-01T16:13:15;108.18;;;39.95;;
50393;SDS011;36308;46.312;25.288;2023-02-01T16:15:42;47.92;;;24.58;;
50393;SDS011;36308;46.312;25.288;2023-02-01T16:18:09;53.20;;;32.38;;
50393;SDS011;36308;46.312;25.288;2023-02-01T16:20:35;43.85;;;27.00;;
50393;SDS011;36308;46.312;25.288;2023-02-01T16:23:02;33.25;;;21.80;;
50393;SDS011;36308;46.312;25.288;2023-02-01T16:25:28;31.20;;;20.58;;
50393;SDS011;36308;46.312;25.288;2023-02-01T16:27:54;104.38;;;66.65;;
50393;SDS011;36308;46.312;25.288;2023-02-01T16:30:20;178.93;;;122.22;;
50393;SDS011;36308;46.312;25.288;2023-02-01T16:32:56;64.70;;;42.30;;
50393;SDS011;36308;46.312;25.288;2023-02-01T16:38:00;36.58;;;26.95;;
50393;SDS011;36308;46.312;25.288;2023-02-01T16:40:27;35.83;;;25.33;;
50393;SDS011;36308;46.312;25.288;2023-02-01T16:42:53;35.63;;;25.67;;
50393;SDS011;36308;46.312;25.288;2023-02-01T16:45:20;39.38;;;26.25;;
50393;SDS011;36308;46.312;25.288;2023-02-01T16:47:49;49.20;;;31.15;;
50393;SDS011;36308;46.312;25.288;2023-02-01T16:50:23;43.75;;;30.88;;
50393;SDS011;36308;46.312;25.288;2023-02-01T16:52:50;62.90;;;32.40;;
50393;SDS011;36308;46.312;25.288;2023-02-01T16:55:18;57.92;;;29.30;;
50393;SDS011;36308;46.312;25.288;2023-02-01T16:57:46;35.42;;;22.20;;
50393;SDS011;36308;46.312;25.288;2023-02-01T17:00:12;58.28;;;41.95;;
50393;SDS011;36308;46.312;25.288;2023-02-01T17:02:40;45.38;;;31.67;;
50393;SDS011;36308;46.312;25.288;2023-02-01T17:05:07;23.40;;;16.90;;
50393;SDS011;36308;46.312;25.288;2023-02-01T17:07:34;20.52;;;14.00;;
50393;SDS011;36308;46.312;25.288;2023-02-01T17:10:01;16.92;;;11.57;;
50393;SDS011;36308;46.312;25.288;2023-02-01T17:12:29;24.33;;;16.77;;
50393;SDS011;36308;46.312;25.288;2023-02-01T17:14:56;23.35;;;15.07;;
50393;SDS011;36308;46.312;25.288;2023-02-01T17:17:23;29.08;;;17.25;;
50393;SDS011;36308;46.312;25.288;2023-02-01T17:19:53;32.80;;;20.67;;
50393;SDS011;36308;46.312;25.288;2023-02-01T17:22:19;29.00;;;20.23;;
50393;SDS011;36308;46.312;25.288;2023-02-01T17:24:46;41.58;;;21.70;;
50393;SDS011;36308;46.312;25.288;2023-02-01T17:27:11;14.57;;;9.40;;
50393;SDS011;36308;46.312;25.288;2023-02-01T17:29:37;16.60;;;9.10;;